AirNav   Free Bose QuietComfort 20
 
 611 users online  

77FL Advent Health Celebration Heliport
Celebration, Florida, USA

GOING TO CELEBRATION?


FAA INFORMATION EFFECTIVE 05 DECEMBER 2019

Location

FAA Identifier: 77FL
Lat/Long: 28-19-45.0000N 081-32-33.0000W
28-19.750000N 081-32.550000W
28.3291667,-81.5425000
(estimated)
Elevation: 92 ft. / 28 m (estimated)
From city: 1 mile NE of CELEBRATION, FL
Time zone: UTC -5 (UTC -4 during Daylight Saving Time)
Zip code: 34747

Heliport Operations

Heliport use: Private use. Permission required prior to landing
Activation date: 10/2008
Control tower: no
ARTCC: JACKSONVILLE CENTER
FSS: SAINT PETERSBURG FLIGHT SERVICE STATION
Attendance: UNTNDD
Wind indicator: yes
Segmented circle: no
Lights: PH 407-303-8271, TO ACTIVATE PERIMETER LGTS.
Beacon: white-green-yellow (heliport)
PH 407-303-8271, TO ACTIVATE BCN.

Heliport Communications

WX AWOS-3PT at ISM (6 nm SE): 128.775 (407-847-0533)
WX ASOS at MCO (14 nm NE): PHONE 407-855-5235
WX ASOS at ORL (17 nm NE): PHONE 407-658-6753
WX ASOS at GIF (19 nm SW): 133.675 (863-956-2097)

Nearby radio navigation aids

VOR radial/distance  VOR name  Freq  Var
ORLr221/16.9ORLANDO VORTAC112.2000E
LALr049/32.3LAKELAND VORTAC116.0001E

Heliport Services

Runway Information

Helipad H1

Dimensions: 68 x 68 ft. / 21 x 21 m
Surface: asphalt, in good condition
Runway edge lights: PERI
Latitude: 28-19.759833N
Longitude: 081-32.571000W
Elevation: 92.0 ft.
Traffic pattern: leftleft

Heliport Ownership and Management from official FAA records

Ownership: Privately-owned
Owner: ADVENTIST HEALTH SYSTEM / SUNBELT
900 WINTERLEY PL, STE 1500
MAITLAND, FL 32751
Phone 407-303-1610
Manager: VICKIE TYSZKO
601 E. ROLLINS, BOX 161
ORLANDO, FL 32803
Phone (407) 303-8832

Additional Remarks

A52-H1 300 FT ANTENNAS 'NE' OF PAD & PLINES 300 DEGREES TO 030 DEGREES 0.5 NM FM PAD.
FOR CD CTC ORLANDO APCH AT 407-852-7553.

Instrument Procedures

There are no published instrument procedures at 77FL.

Some nearby airports with instrument procedures:

KISM - Kissimmee Gateway Airport (6 nm SE)
KMCO - Orlando International Airport (14 nm NE)
KORL - Executive Airport (17 nm NE)
KGIF - Winter Haven Regional Airport (19 nm SW)
X04 - Orlando Apopka Airport (23 nm N)
 
Loc | Ops | Rwys | IFR | FBO | Links
Com | Nav | Svcs | Stats | Notes


 
Aerial photo
No photo
 
Sectional chart

 
Airport distance calculator
Flying to Advent Health Celebration Heliport? Find the distance to fly.

From to 77FL

Sunrise and sunset
Times for 07-Dec-2019
 Local
(UTC-5)
 Zulu
(UTC)
Morning civil twilight06:4111:41
Sunrise07:0612:06
Sunset17:2922:29
Evening civil twilight17:5522:55

Current date and time
Zulu (UTC)  08-Dec-2019 03:55:09
Local (UTC-5)  07-Dec-2019 22:55:09
 
METAR
KISM 
6nm SE 
080256Z AUTO 04003KT 10SM OVC100 19/13 A3019 RMK AO2 SLP224 T01890128 51003
KMCO 
12nm NE 
080253Z 02008KT 10SM SCT110 BKN250 19/13 A3018 RMK AO2 SLP219 T01890128 51004
KORL 
17nm NE 
080253Z 02007KT 10SM OVC110 19/13 A3019 RMK AO2 SLP224 T01940133 51002
KGIF 
19nm SW 
080253Z AUTO 08006KT 10SM CLR 17/12 A3018 RMK AO2 SLP220 T01670122 50003
TAF
KISM 
6nm SE 
071739Z 0718/0818 04006KT P6SM FEW040 SCT100 SCT250 FM080000 02005KT P6SM SCT050 BKN100 FM081500 08007KT P6SM SCT035 BKN090
KMCO 
12nm NE 
072051Z 0721/0824 04006KT P6SM SCT100 SCT250 FM080000 02005KT P6SM SCT070 BKN100 FM081500 08007KT P6SM SCT035 BKN090
NOTAMs
Click for the latest NOTAMs
NOTAMs are issued by the DoD/FAA and will open in a separate window not controlled by AirNav.

 

 
 

Would you like to see your business listed on this page?

 If your business provides an interesting product or service to pilots, flight crews, aircraft, or users of the Advent Health Celebration Heliport, you should consider listing it here.  To start the listing process, click on the button below
 
Add a business
 

Other Pages about Advent Health Celebration Heliport

Update a link
 
Copyright © AirNav, LLC. All rights reserved. Privacy Policy  Contact